Scyrene, Alabama
Current Conditions -  °F | °C
As of 11:53 PM on Sunday 21 Dec 2014 (Local Time) from KGZH Reporting Station
Haze Haze  
Wind Chill: 55°   Ceiling: 300
Heat Index: 55°   Visibility: 2mi
Dew Point: 53°   Wind: 7mph
Humidity: 93%   Direction: 90°E
Pressure: 29.99"   Gusts: NA
Location:  31.7194°N, 87.6559°W
Report Text: KGZH 220553Z AUTO 09006KT 2SM BR OVC003 13/12 A2999 RMK AO2 SLP156 T01280117 10133 20128 401610111 58010
Loading
Personal Weather Stations






























Interactive Weather Map New forecast layout! Learn more

10-Day Weather Forecast

Advertisements
Track Severe Weather on mobile